sensor_id;sensor_type;location;lat;lon;timestamp;P1;durP1;ratioP1;P2;durP2;ratioP2
9773;SDS011;4926;42.670;23.316;2024-03-08T00:00:54;4.18;;;2.72;;
9773;SDS011;4926;42.670;23.316;2024-03-08T00:03:19;3.10;;;2.70;;
9773;SDS011;4926;42.670;23.316;2024-03-08T00:05:45;9.40;;;2.55;;
9773;SDS011;4926;42.670;23.316;2024-03-08T00:08:10;2.50;;;2.30;;
9773;SDS011;4926;42.670;23.316;2024-03-08T00:10:36;2.60;;;2.22;;
9773;SDS011;4926;42.670;23.316;2024-03-08T00:13:04;2.75;;;2.53;;
9773;SDS011;4926;42.670;23.316;2024-03-08T00:15:29;2.00;;;1.83;;
9773;SDS011;4926;42.670;23.316;2024-03-08T00:17:57;2.55;;;2.17;;
9773;SDS011;4926;42.670;23.316;2024-03-08T00:20:23;2.08;;;1.90;;
9773;SDS011;4926;42.670;23.316;2024-03-08T00:22:48;2.05;;;1.95;;
9773;SDS011;4926;42.670;23.316;2024-03-08T00:25:16;2.33;;;2.10;;
9773;SDS011;4926;42.670;23.316;2024-03-08T00:27:43;1.83;;;1.70;;
9773;SDS011;4926;42.670;23.316;2024-03-08T00:30:09;2.10;;;2.00;;
9773;SDS011;4926;42.670;23.316;2024-03-08T00:32:38;2.10;;;1.90;;
9773;SDS011;4926;42.670;23.316;2024-03-08T00:35:03;2.10;;;1.90;;
9773;SDS011;4926;42.670;23.316;2024-03-08T00:37:29;1.95;;;1.85;;
9773;SDS011;4926;42.670;23.316;2024-03-08T00:39:57;1.92;;;1.83;;
9773;SDS011;4926;42.670;23.316;2024-03-08T00:42:23;1.92;;;1.83;;
9773;SDS011;4926;42.670;23.316;2024-03-08T00:44:49;2.10;;;2.00;;
9773;SDS011;4926;42.670;23.316;2024-03-08T00:47:16;1.58;;;1.48;;
9773;SDS011;4926;42.670;23.316;2024-03-08T00:49:42;1.20;;;1.20;;
9773;SDS011;4926;42.670;23.316;2024-03-08T00:52:07;1.60;;;1.50;;
9773;SDS011;4926;42.670;23.316;2024-03-08T00:54:33;1.45;;;1.45;;
9773;SDS011;4926;42.670;23.316;2024-03-08T00:57:01;1.50;;;1.40;;
9773;SDS011;4926;42.670;23.316;2024-03-08T00:59:28;1.20;;;1.20;;
9773;SDS011;4926;42.670;23.316;2024-03-08T01:01:57;1.20;;;1.20;;
9773;SDS011;4926;42.670;23.316;2024-03-08T01:04:22;1.40;;;1.40;;
9773;SDS011;4926;42.670;23.316;2024-03-08T01:06:48;1.50;;;1.40;;
9773;SDS011;4926;42.670;23.316;2024-03-08T01:09:13;1.73;;;1.10;;
9773;SDS011;4926;42.670;23.316;2024-03-08T01:11:39;1.20;;;1.20;;
9773;SDS011;4926;42.670;23.316;2024-03-08T01:14:05;1.50;;;1.42;;
9773;SDS011;4926;42.670;23.316;2024-03-08T01:16:30;1.55;;;1.45;;
9773;SDS011;4926;42.670;23.316;2024-03-08T01:18:58;2.75;;;1.80;;
9773;SDS011;4926;42.670;23.316;2024-03-08T01:21:27;1.33;;;1.33;;
9773;SDS011;4926;42.670;23.316;2024-03-08T01:23:52;1.08;;;1.08;;
9773;SDS011;4926;42.670;23.316;2024-03-08T01:26:18;1.38;;;1.30;;
9773;SDS011;4926;42.670;23.316;2024-03-08T01:28:43;1.20;;;1.20;;
9773;SDS011;4926;42.670;23.316;2024-03-08T01:31:09;1.42;;;1.35;;
9773;SDS011;4926;42.670;23.316;2024-03-08T01:33:38;1.35;;;1.23;;
9773;SDS011;4926;42.670;23.316;2024-03-08T01:36:05;1.55;;;1.45;;
9773;SDS011;4926;42.670;23.316;2024-03-08T01:38:31;1.25;;;1.23;;
9773;SDS011;4926;42.670;23.316;2024-03-08T01:40:56;1.30;;;1.23;;
9773;SDS011;4926;42.670;23.316;2024-03-08T01:43:24;1.50;;;1.40;;
9773;SDS011;4926;42.670;23.316;2024-03-08T01:45:52;0.93;;;0.93;;
9773;SDS011;4926;42.670;23.316;2024-03-08T01:48:18;1.33;;;1.33;;
9773;SDS011;4926;42.670;23.316;2024-03-08T01:50:44;1.70;;;1.27;;
9773;SDS011;4926;42.670;23.316;2024-03-08T01:53:10;0.95;;;0.95;;
9773;SDS011;4926;42.670;23.316;2024-03-08T01:55:40;1.30;;;1.30;;
9773;SDS011;4926;42.670;23.316;2024-03-08T01:58:09;1.50;;;1.40;;
9773;SDS011;4926;42.670;23.316;2024-03-08T02:00:36;1.25;;;1.15;;
9773;SDS011;4926;42.670;23.316;2024-03-08T02:03:05;1.27;;;1.27;;
9773;SDS011;4926;42.670;23.316;2024-03-08T02:05:31;1.27;;;1.23;;
9773;SDS011;4926;42.670;23.316;2024-03-08T02:08:02;1.20;;;1.20;;
9773;SDS011;4926;42.670;23.316;2024-03-08T02:10:28;2.00;;;1.90;;
9773;SDS011;4926;42.670;23.316;2024-03-08T02:12:54;1.27;;;1.25;;
9773;SDS011;4926;42.670;23.316;2024-03-08T02:15:20;1.30;;;1.30;;
9773;SDS011;4926;42.670;23.316;2024-03-08T02:17:46;1.70;;;1.60;;
9773;SDS011;4926;42.670;23.316;2024-03-08T02:20:12;1.52;;;1.42;;
9773;SDS011;4926;42.670;23.316;2024-03-08T02:22:38;1.75;;;1.20;;
9773;SDS011;4926;42.670;23.316;2024-03-08T02:25:04;1.77;;;1.55;;
9773;SDS011;4926;42.670;23.316;2024-03-08T02:27:30;1.25;;;1.25;;
9773;SDS011;4926;42.670;23.316;2024-03-08T02:29:57;1.15;;;0.95;;
9773;SDS011;4926;42.670;23.316;2024-03-08T02:32:23;1.48;;;1.40;;
9773;SDS011;4926;42.670;23.316;2024-03-08T02:34:49;1.50;;;1.40;;
9773;SDS011;4926;42.670;23.316;2024-03-08T02:37:15;1.45;;;1.40;;
9773;SDS011;4926;42.670;23.316;2024-03-08T02:39:41;2.55;;;1.52;;
9773;SDS011;4926;42.670;23.316;2024-03-08T02:42:07;1.58;;;1.48;;
9773;SDS011;4926;42.670;23.316;2024-03-08T02:44:32;1.17;;;1.17;;
9773;SDS011;4926;42.670;23.316;2024-03-08T02:46:58;1.42;;;1.13;;
9773;SDS011;4926;42.670;23.316;2024-03-08T02:49:28;1.48;;;1.45;;
9773;SDS011;4926;42.670;23.316;2024-03-08T02:51:53;0.98;;;0.98;;
9773;SDS011;4926;42.670;23.316;2024-03-08T02:54:23;0.80;;;0.80;;
9773;SDS011;4926;42.670;23.316;2024-03-08T02:56:52;0.95;;;0.82;;
9773;SDS011;4926;42.670;23.316;2024-03-08T02:59:17;0.65;;;0.65;;
9773;SDS011;4926;42.670;23.316;2024-03-08T03:01:43;0.50;;;0.50;;
9773;SDS011;4926;42.670;23.316;2024-03-08T03:04:09;0.50;;;0.50;;
9773;SDS011;4926;42.670;23.316;2024-03-08T03:06:34;0.50;;;0.50;;
9773;SDS011;4926;42.670;23.316;2024-03-08T03:09:03;0.63;;;0.63;;
9773;SDS011;4926;42.670;23.316;2024-03-08T03:13:56;0.50;;;0.40;;
9773;SDS011;4926;42.670;23.316;2024-03-08T03:16:22;0.50;;;0.50;;
9773;SDS011;4926;42.670;23.316;2024-03-08T03:18:48;0.52;;;0.50;;
9773;SDS011;4926;42.670;23.316;2024-03-08T03:21:14;0.52;;;0.52;;
9773;SDS011;4926;42.670;23.316;2024-03-08T03:23:40;0.40;;;0.40;;
9773;SDS011;4926;42.670;23.316;2024-03-08T03:26:07;0.95;;;0.82;;
9773;SDS011;4926;42.670;23.316;2024-03-08T03:28:33;0.50;;;0.50;;
9773;SDS011;4926;42.670;23.316;2024-03-08T03:30:59;0.53;;;0.53;;
9773;SDS011;4926;42.670;23.316;2024-03-08T03:33:25;0.70;;;0.70;;
9773;SDS011;4926;42.670;23.316;2024-03-08T03:35:50;0.70;;;0.70;;
9773;SDS011;4926;42.670;23.316;2024-03-08T03:38:17;0.93;;;0.93;;
9773;SDS011;4926;42.670;23.316;2024-03-08T03:40:45;1.10;;;1.10;;
9773;SDS011;4926;42.670;23.316;2024-03-08T03:43:11;1.33;;;1.27;;
9773;SDS011;4926;42.670;23.316;2024-03-08T03:45:37;1.20;;;1.20;;
9773;SDS011;4926;42.670;23.316;2024-03-08T03:48:03;1.15;;;1.13;;
9773;SDS011;4926;42.670;23.316;2024-03-08T03:50:29;1.10;;;1.10;;
9773;SDS011;4926;42.670;23.316;2024-03-08T03:52:55;2.45;;;1.30;;
9773;SDS011;4926;42.670;23.316;2024-03-08T03:55:20;1.27;;;1.27;;
9773;SDS011;4926;42.670;23.316;2024-03-08T03:57:47;1.40;;;1.40;;
9773;SDS011;4926;42.670;23.316;2024-03-08T04:00:12;1.45;;;1.40;;
9773;SDS011;4926;42.670;23.316;2024-03-08T04:02:38;1.35;;;1.30;;
9773;SDS011;4926;42.670;23.316;2024-03-08T04:05:05;1.20;;;1.20;;
9773;SDS011;4926;42.670;23.316;2024-03-08T04:07:32;1.02;;;1.02;;
9773;SDS011;4926;42.670;23.316;2024-03-08T04:09:57;1.13;;;1.13;;
9773;SDS011;4926;42.670;23.316;2024-03-08T04:12:23;2.53;;;1.30;;
9773;SDS011;4926;42.670;23.316;2024-03-08T04:14:48;1.20;;;1.20;;
9773;SDS011;4926;42.670;23.316;2024-03-08T04:17:14;1.13;;;1.13;;
9773;SDS011;4926;42.670;23.316;2024-03-08T04:19:40;1.52;;;1.13;;
9773;SDS011;4926;42.670;23.316;2024-03-08T04:22:06;1.10;;;1.10;;
9773;SDS011;4926;42.670;23.316;2024-03-08T04:24:32;0.82;;;0.82;;
9773;SDS011;4926;42.670;23.316;2024-03-08T04:26:58;1.27;;;1.20;;
9773;SDS011;4926;42.670;23.316;2024-03-08T04:29:24;1.02;;;1.02;;
9773;SDS011;4926;42.670;23.316;2024-03-08T04:31:49;1.30;;;1.30;;
9773;SDS011;4926;42.670;23.316;2024-03-08T04:34:19;1.40;;;1.40;;
9773;SDS011;4926;42.670;23.316;2024-03-08T04:36:46;1.30;;;1.20;;
9773;SDS011;4926;42.670;23.316;2024-03-08T04:39:11;1.60;;;1.50;;
9773;SDS011;4926;42.670;23.316;2024-03-08T04:41:38;1.60;;;1.50;;
9773;SDS011;4926;42.670;23.316;2024-03-08T04:44:08;2.80;;;1.38;;
9773;SDS011;4926;42.670;23.316;2024-03-08T04:46:40;1.73;;;1.38;;
9773;SDS011;4926;42.670;23.316;2024-03-08T04:51:39;1.40;;;1.33;;
9773;SDS011;4926;42.670;23.316;2024-03-08T04:54:08;1.27;;;1.27;;
9773;SDS011;4926;42.670;23.316;2024-03-08T04:56:45;1.83;;;1.60;;
9773;SDS011;4926;42.670;23.316;2024-03-08T04:59:32;1.27;;;1.20;;
9773;SDS011;4926;42.670;23.316;2024-03-08T05:04:32;1.88;;;1.77;;
9773;SDS011;4926;42.670;23.316;2024-03-08T05:07:01;1.70;;;1.60;;
9773;SDS011;4926;42.670;23.316;2024-03-08T05:09:29;3.63;;;1.55;;
9773;SDS011;4926;42.670;23.316;2024-03-08T05:11:56;1.38;;;1.33;;
9773;SDS011;4926;42.670;23.316;2024-03-08T05:14:24;2.55;;;2.35;;
9773;SDS011;4926;42.670;23.316;2024-03-08T05:16:50;1.90;;;1.80;;
9773;SDS011;4926;42.670;23.316;2024-03-08T05:19:16;1.70;;;1.60;;
9773;SDS011;4926;42.670;23.316;2024-03-08T05:21:46;1.77;;;1.67;;
9773;SDS011;4926;42.670;23.316;2024-03-08T05:24:12;1.95;;;1.85;;
9773;SDS011;4926;42.670;23.316;2024-03-08T05:26:41;2.75;;;1.95;;
9773;SDS011;4926;42.670;23.316;2024-03-08T05:29:07;2.22;;;2.13;;
9773;SDS011;4926;42.670;23.316;2024-03-08T05:31:43;1.95;;;1.85;;
9773;SDS011;4926;42.670;23.316;2024-03-08T05:34:12;1.98;;;1.88;;
9773;SDS011;4926;42.670;23.316;2024-03-08T05:36:39;2.20;;;2.00;;
9773;SDS011;4926;42.670;23.316;2024-03-08T05:39:06;2.33;;;2.10;;
9773;SDS011;4926;42.670;23.316;2024-03-08T05:41:32;3.42;;;3.13;;
9773;SDS011;4926;42.670;23.316;2024-03-08T05:43:57;2.85;;;2.00;;
9773;SDS011;4926;42.670;23.316;2024-03-08T05:46:23;2.40;;;2.20;;
9773;SDS011;4926;42.670;23.316;2024-03-08T05:48:49;2.00;;;1.90;;
9773;SDS011;4926;42.670;23.316;2024-03-08T05:51:14;2.25;;;2.05;;
9773;SDS011;4926;42.670;23.316;2024-03-08T05:53:40;3.00;;;2.80;;
9773;SDS011;4926;42.670;23.316;2024-03-08T05:56:05;2.88;;;2.67;;
9773;SDS011;4926;42.670;23.316;2024-03-08T05:58:31;2.88;;;2.60;;
9773;SDS011;4926;42.670;23.316;2024-03-08T06:00:56;4.72;;;3.30;;
9773;SDS011;4926;42.670;23.316;2024-03-08T06:03:22;2.60;;;2.40;;
9773;SDS011;4926;42.670;23.316;2024-03-08T06:05:48;6.38;;;3.75;;
9773;SDS011;4926;42.670;23.316;2024-03-08T06:08:14;3.10;;;2.80;;
9773;SDS011;4926;42.670;23.316;2024-03-08T06:10:40;3.60;;;3.30;;
9773;SDS011;4926;42.670;23.316;2024-03-08T06:13:06;5.40;;;4.00;;
9773;SDS011;4926;42.670;23.316;2024-03-08T06:15:31;4.15;;;3.85;;
9773;SDS011;4926;42.670;23.316;2024-03-08T06:17:57;23.35;;;5.40;;
9773;SDS011;4926;42.670;23.316;2024-03-08T06:20:22;6.45;;;4.22;;
9773;SDS011;4926;42.670;23.316;2024-03-08T06:22:51;14.13;;;4.63;;
9773;SDS011;4926;42.670;23.316;2024-03-08T06:25:17;6.28;;;4.88;;
9773;SDS011;4926;42.670;23.316;2024-03-08T06:27:43;5.65;;;4.20;;
9773;SDS011;4926;42.670;23.316;2024-03-08T06:30:12;6.00;;;4.28;;
9773;SDS011;4926;42.670;23.316;2024-03-08T06:32:37;7.57;;;4.57;;
9773;SDS011;4926;42.670;23.316;2024-03-08T06:35:03;8.77;;;5.30;;
9773;SDS011;4926;42.670;23.316;2024-03-08T06:37:31;9.07;;;4.85;;
9773;SDS011;4926;42.670;23.316;2024-03-08T06:39:57;8.73;;;4.65;;
9773;SDS011;4926;42.670;23.316;2024-03-08T06:42:23;10.07;;;5.82;;
9773;SDS011;4926;42.670;23.316;2024-03-08T06:44:48;7.28;;;4.97;;
9773;SDS011;4926;42.670;23.316;2024-03-08T06:47:17;7.07;;;4.45;;
9773;SDS011;4926;42.670;23.316;2024-03-08T06:49:42;4.93;;;4.43;;
9773;SDS011;4926;42.670;23.316;2024-03-08T06:52:11;5.80;;;4.10;;
9773;SDS011;4926;42.670;23.316;2024-03-08T06:54:36;6.65;;;3.95;;
9773;SDS011;4926;42.670;23.316;2024-03-08T06:57:05;3.53;;;2.90;;
9773;SDS011;4926;42.670;23.316;2024-03-08T06:59:33;3.95;;;3.15;;
9773;SDS011;4926;42.670;23.316;2024-03-08T07:02:01;3.40;;;3.10;;
9773;SDS011;4926;42.670;23.316;2024-03-08T07:04:27;3.60;;;3.30;;
9773;SDS011;4926;42.670;23.316;2024-03-08T07:06:57;4.05;;;3.30;;
9773;SDS011;4926;42.670;23.316;2024-03-08T07:09:26;4.40;;;3.30;;
9773;SDS011;4926;42.670;23.316;2024-03-08T07:11:51;4.85;;;3.70;;
9773;SDS011;4926;42.670;23.316;2024-03-08T07:14:23;5.18;;;3.17;;
9773;SDS011;4926;42.670;23.316;2024-03-08T07:16:49;8.60;;;3.53;;
9773;SDS011;4926;42.670;23.316;2024-03-08T07:19:15;3.60;;;3.30;;
9773;SDS011;4926;42.670;23.316;2024-03-08T07:21:41;4.22;;;2.92;;
9773;SDS011;4926;42.670;23.316;2024-03-08T07:24:07;3.90;;;3.60;;
9773;SDS011;4926;42.670;23.316;2024-03-08T07:26:42;3.45;;;3.15;;
9773;SDS011;4926;42.670;23.316;2024-03-08T07:29:15;15.55;;;4.25;;
9773;SDS011;4926;42.670;23.316;2024-03-08T07:31:40;3.90;;;3.42;;
9773;SDS011;4926;42.670;23.316;2024-03-08T07:34:06;22.88;;;4.93;;
9773;SDS011;4926;42.670;23.316;2024-03-08T07:36:33;4.03;;;3.58;;
9773;SDS011;4926;42.670;23.316;2024-03-08T07:39:00;7.22;;;4.10;;
9773;SDS011;4926;42.670;23.316;2024-03-08T07:41:25;4.82;;;3.60;;
9773;SDS011;4926;42.670;23.316;2024-03-08T07:43:51;3.28;;;3.00;;
9773;SDS011;4926;42.670;23.316;2024-03-08T07:46:17;5.60;;;4.03;;
9773;SDS011;4926;42.670;23.316;2024-03-08T07:48:44;4.78;;;3.63;;
9773;SDS011;4926;42.670;23.316;2024-03-08T07:51:10;4.50;;;3.50;;
9773;SDS011;4926;42.670;23.316;2024-03-08T07:53:37;4.40;;;4.07;;
9773;SDS011;4926;42.670;23.316;2024-03-08T07:56:03;9.45;;;4.45;;
9773;SDS011;4926;42.670;23.316;2024-03-08T07:58:30;4.22;;;3.80;;
9773;SDS011;4926;42.670;23.316;2024-03-08T08:00:56;4.72;;;3.90;;
9773;SDS011;4926;42.670;23.316;2024-03-08T08:03:21;4.65;;;4.25;;
9773;SDS011;4926;42.670;23.316;2024-03-08T08:05:47;4.20;;;3.83;;
9773;SDS011;4926;42.670;23.316;2024-03-08T08:08:15;6.60;;;4.32;;
9773;SDS011;4926;42.670;23.316;2024-03-08T08:10:40;7.63;;;3.83;;
9773;SDS011;4926;42.670;23.316;2024-03-08T08:13:09;3.95;;;3.58;;
9773;SDS011;4926;42.670;23.316;2024-03-08T08:15:34;4.25;;;3.72;;
9773;SDS011;4926;42.670;23.316;2024-03-08T08:18:00;7.68;;;4.25;;
9773;SDS011;4926;42.670;23.316;2024-03-08T08:20:25;9.07;;;4.25;;
9773;SDS011;4926;42.670;23.316;2024-03-08T08:22:53;4.20;;;3.90;;
9773;SDS011;4926;42.670;23.316;2024-03-08T08:25:20;4.95;;;3.58;;
9773;SDS011;4926;42.670;23.316;2024-03-08T08:27:46;3.72;;;3.25;;
9773;SDS011;4926;42.670;23.316;2024-03-08T08:30:12;4.13;;;3.42;;
9773;SDS011;4926;42.670;23.316;2024-03-08T08:32:38;5.25;;;3.47;;
9773;SDS011;4926;42.670;23.316;2024-03-08T08:35:04;3.88;;;3.45;;
9773;SDS011;4926;42.670;23.316;2024-03-08T08:37:31;5.22;;;4.03;;
9773;SDS011;4926;42.670;23.316;2024-03-08T08:39:57;6.65;;;4.72;;
9773;SDS011;4926;42.670;23.316;2024-03-08T08:42:23;16.80;;;8.60;;
9773;SDS011;4926;42.670;23.316;2024-03-08T08:44:49;3.80;;;3.33;;
9773;SDS011;4926;42.670;23.316;2024-03-08T08:47:16;2.83;;;2.53;;
9773;SDS011;4926;42.670;23.316;2024-03-08T08:49:44;4.10;;;3.30;;
9773;SDS011;4926;42.670;23.316;2024-03-08T08:54:37;3.87;;;2.90;;
9773;SDS011;4926;42.670;23.316;2024-03-08T08:57:02;5.78;;;3.50;;
9773;SDS011;4926;42.670;23.316;2024-03-08T08:59:32;3.88;;;3.45;;
9773;SDS011;4926;42.670;23.316;2024-03-08T09:02:01;3.47;;;3.03;;
9773;SDS011;4926;42.670;23.316;2024-03-08T09:04:29;7.07;;;4.57;;
9773;SDS011;4926;42.670;23.316;2024-03-08T09:06:56;3.97;;;3.17;;
9773;SDS011;4926;42.670;23.316;2024-03-08T09:09:22;2.63;;;2.42;;
9773;SDS011;4926;42.670;23.316;2024-03-08T09:11:48;3.38;;;2.42;;
9773;SDS011;4926;42.670;23.316;2024-03-08T09:14:14;5.75;;;3.70;;
9773;SDS011;4926;42.670;23.316;2024-03-08T09:16:40;5.72;;;3.22;;
9773;SDS011;4926;42.670;23.316;2024-03-08T09:19:09;4.13;;;3.83;;
9773;SDS011;4926;42.670;23.316;2024-03-08T09:21:36;3.35;;;3.15;;
9773;SDS011;4926;42.670;23.316;2024-03-08T09:24:02;3.67;;;3.20;;
9773;SDS011;4926;42.670;23.316;2024-03-08T09:26:27;3.28;;;3.05;;
9773;SDS011;4926;42.670;23.316;2024-03-08T09:28:53;8.82;;;3.22;;
9773;SDS011;4926;42.670;23.316;2024-03-08T09:31:21;3.45;;;3.25;;
9773;SDS011;4926;42.670;23.316;2024-03-08T09:33:47;3.70;;;3.03;;
9773;SDS011;4926;42.670;23.316;2024-03-08T09:36:12;3.08;;;2.88;;
9773;SDS011;4926;42.670;23.316;2024-03-08T09:38:39;1.90;;;1.80;;
9773;SDS011;4926;42.670;23.316;2024-03-08T09:41:05;3.65;;;3.35;;
9773;SDS011;4926;42.670;23.316;2024-03-08T09:43:31;1.88;;;1.70;;
9773;SDS011;4926;42.670;23.316;2024-03-08T09:45:57;2.08;;;1.77;;
9773;SDS011;4926;42.670;23.316;2024-03-08T09:48:23;1.70;;;1.60;;
9773;SDS011;4926;42.670;23.316;2024-03-08T09:50:49;1.60;;;1.50;;
9773;SDS011;4926;42.670;23.316;2024-03-08T09:53:14;3.83;;;1.75;;
9773;SDS011;4926;42.670;23.316;2024-03-08T09:55:41;3.30;;;1.52;;
9773;SDS011;4926;42.670;23.316;2024-03-08T09:58:10;2.45;;;1.85;;
9773;SDS011;4926;42.670;23.316;2024-03-08T10:00:58;2.20;;;2.10;;
9773;SDS011;4926;42.670;23.316;2024-03-08T10:03:23;3.17;;;2.20;;
9773;SDS011;4926;42.670;23.316;2024-03-08T10:05:53;2.22;;;2.13;;
9773;SDS011;4926;42.670;23.316;2024-03-08T10:08:21;2.35;;;2.25;;
9773;SDS011;4926;42.670;23.316;2024-03-08T10:10:47;3.00;;;2.80;;
9773;SDS011;4926;42.670;23.316;2024-03-08T10:13:14;3.17;;;2.58;;
9773;SDS011;4926;42.670;23.316;2024-03-08T10:15:44;3.20;;;3.00;;
9773;SDS011;4926;42.670;23.316;2024-03-08T10:18:10;3.05;;;2.50;;
9773;SDS011;4926;42.670;23.316;2024-03-08T10:20:36;3.40;;;2.47;;
9773;SDS011;4926;42.670;23.316;2024-03-08T10:23:04;2.10;;;2.00;;
9773;SDS011;4926;42.670;23.316;2024-03-08T10:25:30;2.00;;;1.90;;
9773;SDS011;4926;42.670;23.316;2024-03-08T10:27:59;2.47;;;2.38;;
9773;SDS011;4926;42.670;23.316;2024-03-08T10:30:29;2.58;;;2.47;;
9773;SDS011;4926;42.670;23.316;2024-03-08T10:32:54;2.38;;;2.28;;
9773;SDS011;4926;42.670;23.316;2024-03-08T10:35:20;2.92;;;2.50;;
9773;SDS011;4926;42.670;23.316;2024-03-08T10:40:22;3.15;;;2.85;;
9773;SDS011;4926;42.670;23.316;2024-03-08T10:42:56;2.50;;;2.33;;
9773;SDS011;4926;42.670;23.316;2024-03-08T10:50:48;1.92;;;1.83;;
9773;SDS011;4926;42.670;23.316;2024-03-08T10:53:18;1.88;;;1.77;;
9773;SDS011;4926;42.670;23.316;2024-03-08T10:55:47;1.67;;;1.58;;
9773;SDS011;4926;42.670;23.316;2024-03-08T10:58:15;1.45;;;1.45;;
9773;SDS011;4926;42.670;23.316;2024-03-08T11:00:42;4.03;;;2.88;;
9773;SDS011;4926;42.670;23.316;2024-03-08T11:03:07;2.22;;;2.08;;
9773;SDS011;4926;42.670;23.316;2024-03-08T11:06:19;1.83;;;1.73;;
9773;SDS011;4926;42.670;23.316;2024-03-08T11:09:08;2.10;;;2.00;;
9773;SDS011;4926;42.670;23.316;2024-03-08T11:11:52;12.57;;;2.80;;
9773;SDS011;4926;42.670;23.316;2024-03-08T11:17:12;1.40;;;1.35;;
9773;SDS011;4926;42.670;23.316;2024-03-08T11:19:38;1.25;;;1.25;;
9773;SDS011;4926;42.670;23.316;2024-03-08T11:22:19;3.25;;;1.60;;
9773;SDS011;4926;42.670;23.316;2024-03-08T11:24:49;1.35;;;1.20;;
9773;SDS011;4926;42.670;23.316;2024-03-08T11:27:15;1.73;;;1.63;;
9773;SDS011;4926;42.670;23.316;2024-03-08T11:29:40;2.00;;;1.90;;
9773;SDS011;4926;42.670;23.316;2024-03-08T11:34:40;5.50;;;2.28;;
9773;SDS011;4926;42.670;23.316;2024-03-08T11:37:17;2.28;;;1.55;;
9773;SDS011;4926;42.670;23.316;2024-03-08T11:39:54;1.77;;;1.67;;
9773;SDS011;4926;42.670;23.316;2024-03-08T11:42:24;6.65;;;1.83;;
9773;SDS011;4926;42.670;23.316;2024-03-08T11:44:51;3.25;;;1.92;;
9773;SDS011;4926;42.670;23.316;2024-03-08T11:47:18;3.17;;;1.90;;
9773;SDS011;4926;42.670;23.316;2024-03-08T11:49:44;1.30;;;1.30;;
9773;SDS011;4926;42.670;23.316;2024-03-08T11:52:13;1.80;;;1.70;;
9773;SDS011;4926;42.670;23.316;2024-03-08T11:54:40;2.95;;;1.70;;
9773;SDS011;4926;42.670;23.316;2024-03-08T11:57:06;1.38;;;1.35;;
9773;SDS011;4926;42.670;23.316;2024-03-08T11:59:32;1.48;;;1.38;;
9773;SDS011;4926;42.670;23.316;2024-03-08T12:01:58;1.40;;;1.40;;
9773;SDS011;4926;42.670;23.316;2024-03-08T12:04:28;1.40;;;1.30;;
9773;SDS011;4926;42.670;23.316;2024-03-08T12:06:55;1.92;;;1.40;;
9773;SDS011;4926;42.670;23.316;2024-03-08T12:09:28;2.20;;;2.10;;
9773;SDS011;4926;42.670;23.316;2024-03-08T12:11:54;1.85;;;1.75;;
9773;SDS011;4926;42.670;23.316;2024-03-08T12:14:20;1.75;;;1.65;;
9773;SDS011;4926;42.670;23.316;2024-03-08T12:16:45;1.30;;;1.30;;
9773;SDS011;4926;42.670;23.316;2024-03-08T12:19:13;1.40;;;1.30;;
9773;SDS011;4926;42.670;23.316;2024-03-08T12:21:39;7.30;;;2.00;;
9773;SDS011;4926;42.670;23.316;2024-03-08T12:26:41;1.25;;;1.25;;
9773;SDS011;4926;42.670;23.316;2024-03-08T12:31:51;1.00;;;1.00;;
9773;SDS011;4926;42.670;23.316;2024-03-08T12:34:18;1.55;;;1.45;;
9773;SDS011;4926;42.670;23.316;2024-03-08T12:36:44;1.13;;;1.13;;
9773;SDS011;4926;42.670;23.316;2024-03-08T12:39:12;5.55;;;2.80;;
9773;SDS011;4926;42.670;23.316;2024-03-08T12:41:42;2.17;;;2.08;;
9773;SDS011;4926;42.670;23.316;2024-03-08T12:44:08;4.13;;;1.85;;
9773;SDS011;4926;42.670;23.316;2024-03-08T12:46:36;1.40;;;1.30;;
9773;SDS011;4926;42.670;23.316;2024-03-08T12:49:08;1.67;;;1.50;;
9773;SDS011;4926;42.670;23.316;2024-03-08T12:51:35;8.60;;;2.17;;
9773;SDS011;4926;42.670;23.316;2024-03-08T12:54:01;1.52;;;1.42;;
9773;SDS011;4926;42.670;23.316;2024-03-08T12:56:30;9.30;;;2.50;;
9773;SDS011;4926;42.670;23.316;2024-03-08T12:58:58;2.13;;;2.00;;
9773;SDS011;4926;42.670;23.316;2024-03-08T13:01:24;1.60;;;1.48;;
9773;SDS011;4926;42.670;23.316;2024-03-08T13:03:49;4.18;;;2.33;;
9773;SDS011;4926;42.670;23.316;2024-03-08T13:06:15;1.58;;;1.48;;
9773;SDS011;4926;42.670;23.316;2024-03-08T13:08:41;1.77;;;1.67;;
9773;SDS011;4926;42.670;23.316;2024-03-08T13:11:06;1.60;;;1.50;;
9773;SDS011;4926;42.670;23.316;2024-03-08T13:13:32;1.48;;;1.38;;
9773;SDS011;4926;42.670;23.316;2024-03-08T13:16:01;1.30;;;1.30;;
9773;SDS011;4926;42.670;23.316;2024-03-08T13:18:37;1.45;;;1.38;;
9773;SDS011;4926;42.670;23.316;2024-03-08T13:21:03;1.83;;;1.63;;
9773;SDS011;4926;42.670;23.316;2024-03-08T13:23:32;2.47;;;1.50;;
9773;SDS011;4926;42.670;23.316;2024-03-08T13:25:58;1.65;;;1.55;;
9773;SDS011;4926;42.670;23.316;2024-03-08T13:28:24;1.17;;;1.17;;
9773;SDS011;4926;42.670;23.316;2024-03-08T13:30:55;1.20;;;1.20;;
9773;SDS011;4926;42.670;23.316;2024-03-08T13:33:23;2.17;;;1.48;;
9773;SDS011;4926;42.670;23.316;2024-03-08T13:35:49;1.67;;;1.33;;
9773;SDS011;4926;42.670;23.316;2024-03-08T13:38:17;2.47;;;1.35;;
9773;SDS011;4926;42.670;23.316;2024-03-08T13:40:45;9.40;;;5.15;;
9773;SDS011;4926;42.670;23.316;2024-03-08T13:43:12;1.27;;;1.27;;
9773;SDS011;4926;42.670;23.316;2024-03-08T13:45:38;1.30;;;1.20;;
9773;SDS011;4926;42.670;23.316;2024-03-08T13:48:03;1.08;;;1.08;;
9773;SDS011;4926;42.670;23.316;2024-03-08T13:50:29;2.47;;;1.65;;
9773;SDS011;4926;42.670;23.316;2024-03-08T13:52:58;1.27;;;1.17;;
9773;SDS011;4926;42.670;23.316;2024-03-08T13:55:24;1.42;;;1.35;;
9773;SDS011;4926;42.670;23.316;2024-03-08T13:57:51;3.60;;;1.38;;
9773;SDS011;4926;42.670;23.316;2024-03-08T14:00:17;1.23;;;1.23;;
9773;SDS011;4926;42.670;23.316;2024-03-08T14:02:43;1.55;;;1.45;;
9773;SDS011;4926;42.670;23.316;2024-03-08T14:05:08;3.33;;;1.48;;
9773;SDS011;4926;42.670;23.316;2024-03-08T14:07:35;1.58;;;1.50;;
9773;SDS011;4926;42.670;23.316;2024-03-08T14:10:01;1.13;;;1.13;;
9773;SDS011;4926;42.670;23.316;2024-03-08T14:12:26;1.05;;;0.88;;
9773;SDS011;4926;42.670;23.316;2024-03-08T14:14:52;3.38;;;1.27;;
9773;SDS011;4926;42.670;23.316;2024-03-08T14:17:18;1.23;;;1.20;;
9773;SDS011;4926;42.670;23.316;2024-03-08T14:19:44;1.30;;;1.20;;
9773;SDS011;4926;42.670;23.316;2024-03-08T14:22:09;1.20;;;1.20;;
9773;SDS011;4926;42.670;23.316;2024-03-08T14:24:39;5.63;;;4.07;;
9773;SDS011;4926;42.670;23.316;2024-03-08T14:27:07;1.70;;;1.60;;
9773;SDS011;4926;42.670;23.316;2024-03-08T14:29:34;2.45;;;1.23;;
9773;SDS011;4926;42.670;23.316;2024-03-08T14:32:00;1.70;;;1.40;;
9773;SDS011;4926;42.670;23.316;2024-03-08T14:34:28;1.67;;;1.58;;
9773;SDS011;4926;42.670;23.316;2024-03-08T14:36:57;1.90;;;1.70;;
9773;SDS011;4926;42.670;23.316;2024-03-08T14:39:23;4.65;;;1.63;;
9773;SDS011;4926;42.670;23.316;2024-03-08T14:44:23;1.50;;;1.30;;
9773;SDS011;4926;42.670;23.316;2024-03-08T14:46:55;1.30;;;1.30;;
9773;SDS011;4926;42.670;23.316;2024-03-08T14:49:21;3.13;;;1.50;;
9773;SDS011;4926;42.670;23.316;2024-03-08T14:51:48;1.73;;;1.63;;
9773;SDS011;4926;42.670;23.316;2024-03-08T14:54:14;1.92;;;1.83;;
9773;SDS011;4926;42.670;23.316;2024-03-08T14:56:39;2.28;;;1.83;;
9773;SDS011;4926;42.670;23.316;2024-03-08T14:59:08;4.70;;;1.98;;
9773;SDS011;4926;42.670;23.316;2024-03-08T15:01:35;1.92;;;1.58;;
9773;SDS011;4926;42.670;23.316;2024-03-08T15:04:01;1.60;;;1.50;;
9773;SDS011;4926;42.670;23.316;2024-03-08T15:06:37;1.80;;;1.70;;
9773;SDS011;4926;42.670;23.316;2024-03-08T15:09:03;1.63;;;1.52;;
9773;SDS011;4926;42.670;23.316;2024-03-08T15:11:44;1.98;;;1.85;;
9773;SDS011;4926;42.670;23.316;2024-03-08T15:14:10;2.10;;;2.00;;
9773;SDS011;4926;42.670;23.316;2024-03-08T15:16:39;2.50;;;2.40;;
9773;SDS011;4926;42.670;23.316;2024-03-08T15:19:08;2.13;;;1.92;;
9773;SDS011;4926;42.670;23.316;2024-03-08T15:21:40;2.85;;;2.58;;
9773;SDS011;4926;42.670;23.316;2024-03-08T15:24:08;5.25;;;2.65;;
9773;SDS011;4926;42.670;23.316;2024-03-08T15:26:40;2.45;;;2.25;;
9773;SDS011;4926;42.670;23.316;2024-03-08T15:29:06;2.38;;;2.20;;
9773;SDS011;4926;42.670;23.316;2024-03-08T15:31:32;3.05;;;2.42;;